createdAt,value
2022-11-15T00:01:17.904Z,10.32
2022-11-15T00:03:46.188Z,11.35
2022-11-15T00:06:13.999Z,14.23
2022-11-15T00:08:41.927Z,12.73
2022-11-15T00:11:13.706Z,13.25
2022-11-15T00:13:41.748Z,11.98
2022-11-15T00:16:11.399Z,13.40
2022-11-15T00:18:39.606Z,11.35
2022-11-15T00:21:09.729Z,11.38
2022-11-15T00:23:38.121Z,12.65
2022-11-15T00:26:06.198Z,13.40
2022-11-15T00:28:34.511Z,13.27
2022-11-15T00:31:03.669Z,14.85
2022-11-15T00:33:33.457Z,11.18
2022-11-15T00:36:03.271Z,11.77
2022-11-15T00:38:33.859Z,11.68
2022-11-15T00:41:06.415Z,14.43
2022-11-15T00:43:36.972Z,11.80
2022-11-15T00:46:04.907Z,11.52
2022-11-15T00:48:34.104Z,14.18
2022-11-15T00:51:01.762Z,14.07
2022-11-15T00:53:29.910Z,14.15
2022-11-15T00:55:58.074Z,9.15
2022-11-15T00:58:25.837Z,10.93
2022-11-15T01:00:53.632Z,12.05
2022-11-15T01:03:21.367Z,12.70
2022-11-15T01:05:50.380Z,12.10
2022-11-15T01:08:18.740Z,13.98
2022-11-15T01:10:46.544Z,11.30
2022-11-15T01:13:14.345Z,11.88
2022-11-15T01:15:42.434Z,13.98
2022-11-15T01:18:10.263Z,9.30
2022-11-15T01:20:41.688Z,10.95
2022-11-15T01:23:11.254Z,12.35
2022-11-15T01:25:39.027Z,9.02
2022-11-15T01:28:06.838Z,13.48
2022-11-15T01:30:34.657Z,11.27
2022-11-15T01:33:02.410Z,12.57
2022-11-15T01:35:30.157Z,12.65
2022-11-15T01:37:58.388Z,12.88
2022-11-15T01:40:27.398Z,13.10
2022-11-15T01:42:55.108Z,11.88
2022-11-15T01:45:23.116Z,12.27
2022-11-15T01:47:54.413Z,10.90
2022-11-15T01:50:25.749Z,11.70
2022-11-15T01:52:53.717Z,13.13
2022-11-15T01:55:24.970Z,13.10
2022-11-15T01:57:59.114Z,10.05
2022-11-15T02:00:26.841Z,11.80
2022-11-15T02:02:54.918Z,11.80
2022-11-15T02:05:24.227Z,10.93
2022-11-15T02:07:52.188Z,14.77
2022-11-15T02:10:22.600Z,16.20
2022-11-15T02:12:51.308Z,9.93
2022-11-15T02:15:20.773Z,12.10
2022-11-15T02:18:06.813Z,12.20
2022-11-15T02:20:54.476Z,10.25
2022-11-15T02:23:43.476Z,9.63
2022-11-15T02:26:30.963Z,9.88
2022-11-15T02:29:05.487Z,11.40
2022-11-15T02:31:42.244Z,9.75
2022-11-15T02:34:18.906Z,12.32
2022-11-15T02:36:57.732Z,9.05
2022-11-15T02:39:33.657Z,11.60
2022-11-15T02:42:04.963Z,7.80
2022-11-15T02:44:36.161Z,10.27
2022-11-15T02:47:14.585Z,9.95
2022-11-15T02:49:47.343Z,11.35
2022-11-15T02:52:18.096Z,11.77
2022-11-15T02:54:55.738Z,9.90
2022-11-15T02:57:38.556Z,10.63
2022-11-15T03:00:11.017Z,12.40
2022-11-15T03:03:03.180Z,9.50
2022-11-15T03:05:39.281Z,8.85
2022-11-15T03:08:12.377Z,11.07
2022-11-15T03:10:47.159Z,10.57
2022-11-15T03:13:24.130Z,11.52
2022-11-15T03:15:59.776Z,9.85
2022-11-15T03:18:34.413Z,10.68
2022-11-15T03:21:05.228Z,9.35
2022-11-15T03:23:34.797Z,10.75
2022-11-15T03:26:03.550Z,8.93
2022-11-15T03:28:38.334Z,10.05
2022-11-15T03:31:28.111Z,8.80
2022-11-15T03:34:00.003Z,9.35
2022-11-15T03:36:28.881Z,11.02
2022-11-15T03:39:01.973Z,10.82
2022-11-15T03:41:37.702Z,9.80
2022-11-15T03:44:15.920Z,8.30
2022-11-15T03:46:49.872Z,11.05
2022-11-15T03:49:24.630Z,12.35
2022-11-15T03:51:52.697Z,8.95
2022-11-15T03:54:20.444Z,9.27
2022-11-15T03:56:48.270Z,7.22
2022-11-15T03:59:16.014Z,6.63
2022-11-15T04:01:43.683Z,8.65
2022-11-15T04:04:11.491Z,10.27
2022-11-15T04:06:40.840Z,7.88
2022-11-15T04:09:08.788Z,9.75
2022-11-15T04:11:36.471Z,8.25
2022-11-15T04:14:04.277Z,11.63
2022-11-15T04:16:31.945Z,8.88
2022-11-15T04:19:17.431Z,8.18
2022-11-15T04:22:03.956Z,7.63
2022-11-15T04:24:31.644Z,6.75
2022-11-15T04:26:59.558Z,8.00
2022-11-15T04:29:36.505Z,7.85
2022-11-15T04:32:05.557Z,6.00
2022-11-15T04:34:34.034Z,9.50
2022-11-15T04:37:16.083Z,7.90
2022-11-15T04:39:45.454Z,6.68
2022-11-15T04:42:13.285Z,7.22
2022-11-15T04:44:40.975Z,6.20
2022-11-15T04:47:08.733Z,5.82
2022-11-15T04:49:36.472Z,6.55
2022-11-15T04:52:06.066Z,5.47
2022-11-15T04:54:33.745Z,8.90
2022-11-15T04:57:01.395Z,8.57
2022-11-15T04:59:29.161Z,5.15
2022-11-15T05:01:56.888Z,6.25
2022-11-15T05:04:23.624Z,6.15
2022-11-15T05:06:53.119Z,6.90
2022-11-15T05:09:23.021Z,4.90
2022-11-15T05:11:50.767Z,6.20
2022-11-15T05:14:18.644Z,6.72
2022-11-15T05:16:46.339Z,10.52
2022-11-15T05:19:14.040Z,8.02
2022-11-15T05:21:41.814Z,7.45
2022-11-15T05:24:11.926Z,6.75
2022-11-15T05:26:41.044Z,8.98
2022-11-15T05:29:11.314Z,6.45
2022-11-15T05:31:42.087Z,7.78
2022-11-15T05:34:09.845Z,5.00
2022-11-15T05:36:39.587Z,5.15
2022-11-15T05:39:09.460Z,8.70
2022-11-15T05:41:43.406Z,6.72
2022-11-15T05:44:15.458Z,5.70
2022-11-15T05:46:44.283Z,6.15
2022-11-15T05:49:14.802Z,5.82
2022-11-15T05:51:43.984Z,6.53
2022-11-15T05:54:13.033Z,6.20
2022-11-15T05:56:42.307Z,6.22
2022-11-15T05:59:11.225Z,6.57
2022-11-15T06:01:40.266Z,5.30
2022-11-15T06:04:08.095Z,13.68
2022-11-15T06:06:36.096Z,9.25
2022-11-15T06:09:05.584Z,9.30
2022-11-15T06:11:33.557Z,9.88
2022-11-15T06:14:02.915Z,8.15
2022-11-15T06:16:30.646Z,9.25
2022-11-15T06:18:58.487Z,7.65
2022-11-15T06:21:28.753Z,6.88
2022-11-15T06:23:56.670Z,6.65
2022-11-15T06:26:24.573Z,6.30
2022-11-15T06:28:52.255Z,7.32
2022-11-15T06:31:21.238Z,7.35
2022-11-15T06:33:50.357Z,9.68
2022-11-15T06:36:18.375Z,8.82
2022-11-15T06:38:46.915Z,5.95
2022-11-15T06:41:16.012Z,8.65
2022-11-15T06:43:44.095Z,8.32
2022-11-15T06:46:13.150Z,8.20
2022-11-15T06:48:42.301Z,8.05
2022-11-15T06:51:10.021Z,11.25
2022-11-15T06:53:38.138Z,6.80
2022-11-15T06:56:08.086Z,6.25
2022-11-15T06:58:36.271Z,7.25
2022-11-15T07:01:06.549Z,8.10
2022-11-15T07:03:36.359Z,8.13
2022-11-15T07:06:07.679Z,7.30
2022-11-15T07:08:36.744Z,7.07
2022-11-15T07:11:07.169Z,7.13
2022-11-15T07:13:36.089Z,9.27
2022-11-15T07:16:04.907Z,7.63
2022-11-15T07:18:32.867Z,9.02
2022-11-15T07:21:03.572Z,7.35
2022-11-15T07:23:33.219Z,4.68
2022-11-15T07:26:01.332Z,5.18
2022-11-15T07:28:29.743Z,5.95
2022-11-15T07:30:57.938Z,7.70
2022-11-15T07:33:25.700Z,6.30
2022-11-15T07:35:53.401Z,4.93
2022-11-15T07:38:21.626Z,5.88
2022-11-15T07:40:58.454Z,5.57
2022-11-15T07:43:26.806Z,11.00
2022-11-15T07:45:58.785Z,8.60
2022-11-15T07:48:35.613Z,5.43
2022-11-15T07:51:14.429Z,7.93
2022-11-15T07:53:42.584Z,9.70
2022-11-15T07:56:11.976Z,9.10
2022-11-15T07:58:39.757Z,7.75
2022-11-15T08:01:08.800Z,7.97
2022-11-15T08:03:37.604Z,6.70
2022-11-15T08:06:05.921Z,4.90
2022-11-15T08:08:33.588Z,6.22
2022-11-15T08:11:01.824Z,4.70
2022-11-15T08:13:31.130Z,7.28
2022-11-15T08:16:02.270Z,5.68
2022-11-15T08:18:29.979Z,5.60
2022-11-15T08:21:01.344Z,5.40
2022-11-15T08:23:29.972Z,6.07
2022-11-15T08:26:02.663Z,5.47
2022-11-15T08:28:32.056Z,4.85
2022-11-15T08:30:59.846Z,11.90
2022-11-15T08:33:28.723Z,8.63
2022-11-15T08:35:58.323Z,6.80
2022-11-15T08:38:26.164Z,5.90
2022-11-15T08:40:55.182Z,6.82
2022-11-15T08:43:25.478Z,6.70
2022-11-15T08:45:57.594Z,7.72
2022-11-15T08:48:25.289Z,6.45
2022-11-15T08:50:55.929Z,8.65
2022-11-15T08:53:24.397Z,6.03
2022-11-15T08:55:52.117Z,7.72
2022-11-15T08:58:19.834Z,7.00
2022-11-15T09:00:47.493Z,5.32
2022-11-15T09:03:16.628Z,6.93
2022-11-15T09:05:44.404Z,6.80
2022-11-15T09:08:32.932Z,5.45
2022-11-15T09:11:00.207Z,6.15
2022-11-15T09:13:27.930Z,8.60
2022-11-15T09:15:59.382Z,7.57
2022-11-15T09:18:28.919Z,6.10
2022-11-15T09:20:58.492Z,4.50
2022-11-15T09:23:27.260Z,9.02
2022-11-15T09:26:01.326Z,10.48
2022-11-15T09:28:29.611Z,5.32
2022-11-15T09:30:59.865Z,5.10
2022-11-15T09:33:30.226Z,5.47
2022-11-15T09:36:02.607Z,8.18
2022-11-15T09:38:30.785Z,8.43
2022-11-15T09:41:19.863Z,6.88
2022-11-15T09:43:59.804Z,4.47
2022-11-15T09:46:39.788Z,5.22
2022-11-15T09:49:11.418Z,4.18
2022-11-15T09:51:47.396Z,5.43
2022-11-15T09:57:22.321Z,5.03
2022-11-15T10:00:44.756Z,5.97
2022-11-15T10:03:05.291Z,4.65
2022-11-15T10:05:39.651Z,6.40
2022-11-15T10:08:22.921Z,5.47
2022-11-15T10:11:15.834Z,6.80
2022-11-15T10:13:45.230Z,4.68
2022-11-15T10:16:28.150Z,4.80
2022-11-15T10:19:05.668Z,5.75
2022-11-15T10:21:47.123Z,9.73
2022-11-15T10:24:20.615Z,6.35
2022-11-15T10:26:49.628Z,7.93
2022-11-15T10:29:26.420Z,6.05
2022-11-15T10:31:55.084Z,5.07
2022-11-15T10:34:24.531Z,7.97
2022-11-15T10:36:58.799Z,6.90
2022-11-15T10:39:27.176Z,5.03
2022-11-15T10:41:55.492Z,4.88
2022-11-15T10:44:28.758Z,5.50
2022-11-15T10:47:23.474Z,4.93
2022-11-15T10:50:00.157Z,5.18
2022-11-15T10:52:31.942Z,5.13
2022-11-15T10:55:05.605Z,3.55
2022-11-15T10:57:36.077Z,5.07
2022-11-15T11:00:09.295Z,4.43
2022-11-15T11:02:40.188Z,4.25
2022-11-15T11:05:27.634Z,3.33
2022-11-15T11:08:00.534Z,5.20
2022-11-15T11:13:23.001Z,9.30
2022-11-15T11:15:57.120Z,5.07
2022-11-15T11:18:30.039Z,4.70
2022-11-15T11:21:03.952Z,6.85
2022-11-15T11:23:47.885Z,7.20
2022-11-15T11:26:34.997Z,8.02
2022-11-15T11:29:17.710Z,4.93
2022-11-15T11:31:56.605Z,4.72
2022-11-15T11:34:43.760Z,5.72
2022-11-15T11:37:19.709Z,4.28
2022-11-15T11:40:02.969Z,3.10
2022-11-15T11:42:42.927Z,4.88
2022-11-15T11:45:20.553Z,4.60
2022-11-15T11:47:51.223Z,5.25
2022-11-15T11:50:21.855Z,3.67
2022-11-15T11:53:03.662Z,3.33
2022-11-15T11:55:37.383Z,4.00
2022-11-15T11:58:11.937Z,4.18
2022-11-15T12:00:43.790Z,6.15
2022-11-15T12:03:16.052Z,4.55
2022-11-15T12:05:47.269Z,7.45
2022-11-15T12:08:27.773Z,3.50
2022-11-15T12:11:09.131Z,5.97
2022-11-15T12:13:38.739Z,6.45
2022-11-15T12:16:13.491Z,5.40
2022-11-15T12:18:45.567Z,3.45
2022-11-15T12:21:25.399Z,4.10
2022-11-15T12:24:01.120Z,4.07
2022-11-15T12:26:36.360Z,8.18
2022-11-15T12:29:12.300Z,4.80
2022-11-15T12:31:44.571Z,4.05
2022-11-15T12:34:33.126Z,6.18
2022-11-15T12:37:00.894Z,4.68
2022-11-15T12:40:02.468Z,6.40
2022-11-15T12:42:43.437Z,3.72
2022-11-15T12:45:28.419Z,3.28
2022-11-15T12:48:13.732Z,4.47
2022-11-15T12:50:59.053Z,4.55
2022-11-15T12:53:31.501Z,5.53
2022-11-15T12:56:21.655Z,4.10
2022-11-15T12:58:53.445Z,4.80
2022-11-15T13:01:58.426Z,7.78
2022-11-15T13:04:29.138Z,6.25
2022-11-15T13:06:59.411Z,5.38
2022-11-15T13:09:54.463Z,4.70
2022-11-15T13:12:53.125Z,4.25
2022-11-15T13:15:43.123Z,4.13
2022-11-15T13:18:32.584Z,5.82
2022-11-15T13:21:02.936Z,4.57
2022-11-15T13:23:31.234Z,3.03
2022-11-15T13:26:12.341Z,5.53
2022-11-15T13:28:46.322Z,3.00
2022-11-15T13:31:31.809Z,4.28
2022-11-15T13:34:03.060Z,3.33
2022-11-15T13:36:34.025Z,9.35
2022-11-15T13:39:04.148Z,5.95
2022-11-15T13:41:34.257Z,4.97
2022-11-15T13:44:03.647Z,5.03
2022-11-15T13:46:34.658Z,4.35
2022-11-15T13:49:04.331Z,3.53
2022-11-15T13:51:39.043Z,4.32
2022-11-15T13:54:21.562Z,5.63
2022-11-15T13:56:53.883Z,8.80
2022-11-15T13:59:26.745Z,4.00
2022-11-15T14:01:57.271Z,4.88
2022-11-15T14:04:30.605Z,4.60
2022-11-15T14:07:01.022Z,5.00
2022-11-15T14:09:36.852Z,3.92
2022-11-15T14:12:25.152Z,3.42
2022-11-15T14:14:53.294Z,3.85
2022-11-15T14:17:34.646Z,4.43
2022-11-15T14:20:02.980Z,3.60
2022-11-15T14:22:32.012Z,4.63
2022-11-15T14:25:17.241Z,3.40
2022-11-15T14:27:46.581Z,5.72
2022-11-15T14:30:16.670Z,5.65
2022-11-15T14:32:48.714Z,5.50
2022-11-15T14:35:19.056Z,4.00
2022-11-15T14:37:47.743Z,3.17
2022-11-15T14:40:17.230Z,6.82
2022-11-15T14:42:47.170Z,3.92
2022-11-15T14:45:18.068Z,4.97
2022-11-15T14:47:47.371Z,4.25
2022-11-15T14:50:16.926Z,5.30
2022-11-15T14:52:44.721Z,2.72
2022-11-15T14:55:19.953Z,4.22
2022-11-15T14:57:47.993Z,7.38
2022-11-15T15:00:16.576Z,5.00
2022-11-15T15:02:45.889Z,5.43
2022-11-15T15:05:18.533Z,7.00
2022-11-15T15:07:46.699Z,3.38
2022-11-15T15:10:39.034Z,5.18
2022-11-15T15:13:03.230Z,5.25
2022-11-15T15:15:36.366Z,4.28
2022-11-15T15:18:05.493Z,4.20
2022-11-15T15:20:34.646Z,4.95
2022-11-15T15:23:02.399Z,5.30
2022-11-15T15:25:32.842Z,3.63
2022-11-15T15:28:01.297Z,3.75
2022-11-15T15:30:31.214Z,7.10
2022-11-15T15:32:59.314Z,5.93
2022-11-15T15:35:32.022Z,11.85
2022-11-15T15:38:01.428Z,5.30
2022-11-15T15:40:31.001Z,6.35
2022-11-15T15:42:59.043Z,4.53
2022-11-15T15:45:28.036Z,4.93
2022-11-15T15:47:56.151Z,5.35
2022-11-15T15:50:26.562Z,6.45
2022-11-15T15:52:57.165Z,8.00
2022-11-15T15:55:27.235Z,15.02
2022-11-15T15:57:55.588Z,9.63
2022-11-15T16:00:25.657Z,7.75
2022-11-15T16:02:54.420Z,6.97
2022-11-15T16:05:22.900Z,5.07
2022-11-15T16:07:50.854Z,4.80
2022-11-15T16:10:22.721Z,5.53
2022-11-15T16:12:51.832Z,6.90
2022-11-15T16:15:20.105Z,5.10
2022-11-15T16:17:51.668Z,4.45
2022-11-15T16:20:33.111Z,5.50
2022-11-15T16:23:07.590Z,5.22
2022-11-15T16:25:42.094Z,8.73
2022-11-15T16:28:19.133Z,11.98
2022-11-15T16:30:49.009Z,6.45
2022-11-15T16:33:21.140Z,7.15
2022-11-15T16:35:49.306Z,5.05
2022-11-15T16:38:19.266Z,5.28
2022-11-15T16:40:47.091Z,6.05
2022-11-15T16:43:16.466Z,5.22
2022-11-15T16:45:44.260Z,7.28
2022-11-15T16:48:23.604Z,5.68
2022-11-15T16:50:51.659Z,7.50
2022-11-15T16:53:20.052Z,9.00
2022-11-15T16:55:48.357Z,9.02
2022-11-15T16:58:17.575Z,7.97
2022-11-15T17:00:46.199Z,11.60
2022-11-15T17:03:14.210Z,10.98
2022-11-15T17:05:42.011Z,18.20
2022-11-15T17:08:09.731Z,15.25
2022-11-15T17:10:40.783Z,9.90
2022-11-15T17:13:11.619Z,10.73
2022-11-15T17:15:41.186Z,13.93
2022-11-15T17:18:14.828Z,10.55
2022-11-15T17:20:46.054Z,10.60
2022-11-15T17:23:15.588Z,10.25
2022-11-15T17:25:43.612Z,10.23
2022-11-15T17:28:12.314Z,9.52
2022-11-15T17:30:44.157Z,11.82
2022-11-15T17:33:12.133Z,8.05
2022-11-15T17:35:39.808Z,8.05
2022-11-15T17:38:08.174Z,8.90
2022-11-15T17:40:35.849Z,10.93
2022-11-15T17:43:03.566Z,9.75
2022-11-15T17:45:31.234Z,14.07
2022-11-15T17:48:00.298Z,10.05
2022-11-15T17:50:28.237Z,9.32
2022-11-15T17:52:57.238Z,7.72
2022-11-15T17:55:24.943Z,12.32
2022-11-15T17:57:52.643Z,13.07
2022-11-15T18:00:21.652Z,13.75
2022-11-15T18:02:49.436Z,9.90
2022-11-15T18:05:18.440Z,11.07
2022-11-15T18:07:46.158Z,8.85
2022-11-15T18:10:13.893Z,13.52
2022-11-15T18:12:41.593Z,12.45
2022-11-15T18:15:09.997Z,11.85
2022-11-15T18:17:38.380Z,12.38
2022-11-15T18:20:07.605Z,11.40
2022-11-15T18:22:36.769Z,12.27
2022-11-15T18:25:04.896Z,10.20
2022-11-15T18:27:33.216Z,10.80
2022-11-15T18:30:00.883Z,13.65
2022-11-15T18:32:28.891Z,11.15
2022-11-15T18:34:56.620Z,21.65
2022-11-15T18:37:24.340Z,10.02
2022-11-15T18:42:41.505Z,11.23
2022-11-15T18:45:10.514Z,12.23
2022-11-15T18:47:38.577Z,18.00
2022-11-15T18:50:07.001Z,11.63
2022-11-15T18:52:34.701Z,12.50
2022-11-15T18:55:04.269Z,9.77
2022-11-15T18:57:31.971Z,11.77
2022-11-15T18:59:59.683Z,12.13
2022-11-15T19:02:27.899Z,8.57
2022-11-15T19:04:55.700Z,13.10
2022-11-15T19:07:23.652Z,14.55
2022-11-15T19:09:51.530Z,7.25
2022-11-15T19:12:20.726Z,10.70
2022-11-15T19:14:48.863Z,9.25
2022-11-15T19:17:16.942Z,9.32
2022-11-15T19:19:44.868Z,9.95
2022-11-15T19:22:12.725Z,8.85
2022-11-15T19:24:40.940Z,11.20
2022-11-15T19:27:09.279Z,8.98
2022-11-15T19:29:40.745Z,11.00
2022-11-15T19:32:08.997Z,11.77
2022-11-15T19:34:37.220Z,10.63
2022-11-15T19:37:05.291Z,8.30
2022-11-15T19:39:36.974Z,12.65
2022-11-15T19:42:07.469Z,11.98
2022-11-15T19:44:35.770Z,8.23
2022-11-15T19:47:06.685Z,9.18
2022-11-15T19:49:34.550Z,9.32
2022-11-15T19:52:02.248Z,8.48
2022-11-15T19:54:33.760Z,9.55
2022-11-15T19:57:01.692Z,7.68
2022-11-15T19:59:29.457Z,9.18
2022-11-15T20:01:57.360Z,9.35
2022-11-15T20:04:26.595Z,9.82
2022-11-15T20:06:54.355Z,7.03
2022-11-15T20:09:22.109Z,10.27
2022-11-15T20:11:50.144Z,12.13
2022-11-15T20:14:18.267Z,14.43
2022-11-15T20:16:48.960Z,11.50
2022-11-15T20:19:19.170Z,13.80
2022-11-15T20:21:48.258Z,18.50
2022-11-15T20:24:16.110Z,8.38
2022-11-15T20:26:44.023Z,9.02
2022-11-15T20:29:12.308Z,9.52
2022-11-15T20:31:40.431Z,9.15
2022-11-15T20:34:08.381Z,7.55
2022-11-15T20:36:36.195Z,7.93
2022-11-15T20:39:05.547Z,6.53
2022-11-15T20:41:33.274Z,7.85
2022-11-15T20:44:03.144Z,6.65
2022-11-15T20:46:31.024Z,7.22
2022-11-15T20:48:59.195Z,7.28
2022-11-15T20:51:27.158Z,6.28
2022-11-15T20:53:55.064Z,7.95
2022-11-15T20:56:24.762Z,6.35
2022-11-15T20:58:53.368Z,8.20
2022-11-15T21:01:23.902Z,8.68
2022-11-15T21:03:52.998Z,8.15
2022-11-15T21:06:21.222Z,6.38
2022-11-15T21:09:03.457Z,9.40
2022-11-15T21:11:50.184Z,7.32
2022-11-15T21:14:18.403Z,7.50
2022-11-15T21:16:46.385Z,6.88
2022-11-15T21:19:14.078Z,8.73
2022-11-15T21:21:41.842Z,6.32
2022-11-15T21:24:10.897Z,6.63
2022-11-15T21:26:42.499Z,7.20
2022-11-15T21:29:10.204Z,8.00
2022-11-15T21:31:38.152Z,8.50
2022-11-15T21:34:07.272Z,9.05
2022-11-15T21:36:34.995Z,7.93
2022-11-15T21:39:02.955Z,6.88
2022-11-15T21:41:31.092Z,8.70
2022-11-15T21:44:01.133Z,8.05
2022-11-15T21:46:30.094Z,10.73
2022-11-15T21:48:59.031Z,9.30
2022-11-15T21:51:27.349Z,12.48
2022-11-15T21:53:56.705Z,8.75
2022-11-15T21:56:25.540Z,6.93
2022-11-15T21:58:54.293Z,6.28
2022-11-15T22:01:42.726Z,7.05
2022-11-15T22:04:10.561Z,8.05
2022-11-15T22:06:39.027Z,7.72
2022-11-15T22:09:07.200Z,5.50
2022-11-15T22:11:35.668Z,6.68
2022-11-15T22:14:03.931Z,5.22
2022-11-15T22:16:33.912Z,5.47
2022-11-15T22:19:02.347Z,7.38
2022-11-15T22:21:30.361Z,7.03
2022-11-15T22:23:58.484Z,8.18
2022-11-15T22:26:26.362Z,7.15
2022-11-15T22:28:54.157Z,11.07
2022-11-15T22:31:22.014Z,7.18
2022-11-15T22:33:51.326Z,7.13
2022-11-15T22:36:19.077Z,6.80
2022-11-15T22:38:46.860Z,7.30
2022-11-15T22:41:14.621Z,9.73
2022-11-15T22:43:42.705Z,6.65
2022-11-15T22:46:11.221Z,8.55
2022-11-15T22:48:39.768Z,7.93
2022-11-15T22:51:10.893Z,7.38
2022-11-15T22:53:38.754Z,8.15
2022-11-15T22:56:07.146Z,7.00
2022-11-15T22:58:36.063Z,12.07
2022-11-15T23:01:06.090Z,8.60
2022-11-15T23:03:34.942Z,8.73
2022-11-15T23:06:04.089Z,7.35
2022-11-15T23:08:33.581Z,8.95
2022-11-15T23:11:19.945Z,6.95
2022-11-15T23:13:50.263Z,7.10
2022-11-15T23:16:25.514Z,5.95
2022-11-15T23:18:54.974Z,8.13
2022-11-15T23:21:41.877Z,13.27
2022-11-15T23:24:12.816Z,7.47
2022-11-15T23:26:41.604Z,9.32
2022-11-15T23:29:12.121Z,7.40
2022-11-15T23:32:01.885Z,9.02
2022-11-15T23:34:31.711Z,8.70
2022-11-15T23:36:59.945Z,7.22
2022-11-15T23:39:29.111Z,10.05
2022-11-15T23:41:57.346Z,8.30
2022-11-15T23:44:25.639Z,10.68
2022-11-15T23:46:54.296Z,9.95
2022-11-15T23:49:22.572Z,10.95
2022-11-15T23:51:50.625Z,8.40
2022-11-15T23:54:18.566Z,11.30
2022-11-15T23:56:47.869Z,10.60
2022-11-15T23:59:15.919Z,10.68
